Time;durP1;ratioP1;P1;durP2;ratioP2;P2;SDS_P1;SDS_P2;PMS_P1;PMS_P2;Temp;Humidity;BMP_temperature;BMP_pressure;BME280_temperature;BME280_humidity;BME280_pressure;Samples;Min_cycle;Max_cycle;Signal;HPM_P1;HPM_P2
2023/05/24 00:01:36;;;;;;;11.20;3.60;;;11.00;41.50;;;;;;4935080;29;20177;-81
2023/05/24 00:04:02;;;;;;;12.33;3.20;;;11.10;41.00;;;;;;4936037;29;20216;-82
2023/05/24 00:06:28;;;;;;;13.70;2.90;;;11.00;39.80;;;;;;4934035;29;20224;-82
2023/05/24 00:08:54;;;;;;;8.60;3.30;;;11.00;40.00;;;;;;4936184;29;20212;-81
2023/05/24 00:11:21;;;;;;;17.03;4.00;;;10.90;42.10;;;;;;4934941;29;20295;-81
2023/05/24 00:13:47;;;;;;;9.53;3.37;;;11.10;44.90;;;;;;4934358;29;20232;-82
2023/05/24 00:16:12;;;;;;;11.60;3.70;;;10.90;45.30;;;;;;4934762;29;20184;-82
2023/05/24 00:18:39;;;;;;;12.37;3.10;;;10.90;45.00;;;;;;4934621;29;20213;-82
2023/05/24 00:21:09;;;;;;;14.37;3.30;;;10.90;45.00;;;;;;4935647;29;20228;-82
2023/05/24 00:23:35;;;;;;;9.43;3.07;;;11.00;45.20;;;;;;4935609;29;20177;-81
2023/05/24 00:26:02;;;;;;;12.83;3.37;;;10.90;46.30;;;;;;4938408;29;20232;-84
2023/05/24 00:28:30;;;;;;;13.50;3.90;;;10.90;45.20;;;;;;4939703;29;20173;-81
2023/05/24 00:30:56;;;;;;;12.90;3.77;;;10.90;47.70;;;;;;4938166;29;20268;-82
2023/05/24 00:33:22;;;;;;;11.37;3.63;;;11.00;49.90;;;;;;4939500;29;20591;-82
2023/05/24 00:35:53;;;;;;;8.70;3.00;;;10.90;48.50;;;;;;4938247;29;20192;-81
2023/05/24 00:38:19;;;;;;;11.13;2.80;;;11.00;46.60;;;;;;4938435;29;20189;-83
2023/05/24 00:40:44;;;;;;;10.27;3.10;;;10.90;44.70;;;;;;4938119;29;20184;-81
2023/05/24 00:43:11;;;;;;;11.73;3.77;;;10.80;47.60;;;;;;4938411;29;20172;-81
2023/05/24 00:45:37;;;;;;;11.47;3.30;;;10.90;50.20;;;;;;4940328;29;20176;-81
2023/05/24 00:48:03;;;;;;;15.67;3.80;;;10.90;50.30;;;;;;4938204;29;20216;-81
2023/05/24 00:50:29;;;;;;;13.77;3.70;;;10.80;48.60;;;;;;4937997;29;20656;-81
2023/05/24 00:52:57;;;;;;;13.53;3.73;;;10.80;51.40;;;;;;4938679;29;20221;-81
2023/05/24 00:55:23;;;;;;;11.70;3.27;;;10.80;51.10;;;;;;4939786;29;20228;-81
2023/05/24 00:57:51;;;;;;;9.80;3.47;;;10.70;51.50;;;;;;4938824;29;20593;-81
2023/05/24 01:00:17;;;;;;;11.93;4.10;;;10.70;53.80;;;;;;4938150;29;20637;-82
2023/05/24 01:02:43;;;;;;;11.20;4.20;;;10.60;54.20;;;;;;4939017;29;20358;-82
2023/05/24 01:05:12;;;;;;;14.30;3.23;;;10.50;56.40;;;;;;4937515;29;20181;-81
2023/05/24 01:07:41;;;;;;;10.90;3.20;;;10.60;57.30;;;;;;4937655;29;20197;-84
2023/05/24 01:10:25;;;;;;;9.70;3.13;;;10.60;56.40;;;;;;4939491;29;20181;-81
2023/05/24 01:16:45;;;;;;;13.70;3.60;;;10.50;59.30;;;;;;4939414;29;20187;-82
2023/05/24 01:19:29;;;;;;;17.53;3.77;;;10.50;61.30;;;;;;4937092;29;20185;-82
2023/05/24 01:22:12;;;;;;;12.20;3.67;;;10.50;65.30;;;;;;4956018;28;20188;-81
2023/05/24 01:25:02;;;;;;;8.00;3.40;;;10.50;64.10;;;;;;4952496;28;20662;-82
2023/05/24 01:27:29;;;;;;;15.73;4.17;;;10.50;64.00;;;;;;4940597;29;20626;-81
2023/05/24 01:29:59;;;;;;;15.10;3.60;;;10.50;63.00;;;;;;4938581;29;20522;-83
2023/05/24 01:32:26;;;;;;;13.07;3.50;;;10.40;63.30;;;;;;4938547;29;20253;-80
2023/05/24 01:34:51;;;;;;;9.90;3.67;;;10.50;63.20;;;;;;4937387;29;20180;-81
2023/05/24 01:37:17;;;;;;;8.83;3.67;;;10.60;61.10;;;;;;4936959;29;20181;-81
2023/05/24 01:39:43;;;;;;;13.03;3.60;;;10.50;59.30;;;;;;4936774;29;20587;-81
2023/05/24 01:42:38;;;;;;;13.47;3.70;;;10.60;60.50;;;;;;4945290;29;20189;-80
2023/05/24 01:45:15;;;;;;;11.87;4.07;;;10.40;61.70;;;;;;4962664;28;20195;-81
2023/05/24 01:48:17;;;;;;;12.03;3.97;;;10.40;65.30;;;;;;4946449;29;20189;-82
2023/05/24 01:50:59;;;;;;;12.57;3.20;;;10.30;63.50;;;;;;4939338;29;20177;-82
2023/05/24 01:53:40;;;;;;;12.80;4.27;;;10.30;67.70;;;;;;4938672;29;20220;-82
2023/05/24 01:56:07;;;;;;;11.83;4.00;;;10.30;66.90;;;;;;4937297;29;20625;-81
2023/05/24 01:58:35;;;;;;;13.50;3.97;;;10.20;68.00;;;;;;4936686;29;20224;-81
2023/05/24 02:01:01;;;;;;;12.40;3.70;;;10.30;68.90;;;;;;4937168;29;20172;-81
2023/05/24 02:03:27;;;;;;;15.30;3.70;;;10.30;68.70;;;;;;4937426;29;20177;-82
2023/05/24 02:05:53;;;;;;;12.17;4.00;;;10.30;68.00;;;;;;4936307;29;20188;-81
2023/05/24 02:08:18;;;;;;;11.57;4.10;;;10.20;68.90;;;;;;4935764;29;20185;-82
2023/05/24 02:10:44;;;;;;;13.50;3.80;;;10.20;72.10;;;;;;4936539;29;20200;-82
2023/05/24 02:13:10;;;;;;;10.50;3.33;;;10.30;70.70;;;;;;4937906;29;20701;-82
2023/05/24 02:15:35;;;;;;;16.40;4.40;;;10.20;70.60;;;;;;4936473;29;20173;-82
2023/05/24 02:18:01;;;;;;;12.40;4.17;;;10.40;70.20;;;;;;4937559;29;20191;-81
2023/05/24 02:20:30;;;;;;;10.90;3.50;;;10.20;71.00;;;;;;4936585;29;20228;-81
2023/05/24 02:22:57;;;;;;;15.20;4.20;;;10.20;71.50;;;;;;4937185;29;20184;-83
2023/05/24 02:25:23;;;;;;;14.87;3.30;;;10.10;74.30;;;;;;4937541;29;20208;-81
2023/05/24 02:27:49;;;;;;;13.67;4.30;;;10.10;75.70;;;;;;4939294;29;20184;-82
2023/05/24 02:30:14;;;;;;;11.13;3.77;;;10.10;78.40;;;;;;4938362;29;20184;-81
2023/05/24 02:32:40;;;;;;;12.60;3.73;;;10.20;78.60;;;;;;4936421;29;20217;-82
2023/05/24 02:35:06;;;;;;;8.40;3.63;;;10.20;78.10;;;;;;4937729;29;20645;-81
2023/05/24 02:37:32;;;;;;;11.00;4.00;;;10.20;75.80;;;;;;4936887;29;20189;-81
2023/05/24 02:39:58;;;;;;;10.77;3.97;;;10.30;76.30;;;;;;4936240;29;20247;-81
2023/05/24 02:42:23;;;;;;;9.87;3.47;;;10.20;74.90;;;;;;4935542;29;20180;-82
2023/05/24 02:44:51;;;;;;;12.47;4.50;;;10.30;75.70;;;;;;4937437;29;20188;-82
2023/05/24 02:47:18;;;;;;;9.80;3.43;;;10.40;72.40;;;;;;4936524;29;20197;-81
2023/05/24 02:49:44;;;;;;;15.97;4.00;;;10.30;67.60;;;;;;4937333;29;20206;-82
2023/05/24 02:52:09;;;;;;;11.37;3.70;;;10.30;71.30;;;;;;4937917;29;20208;-82
2023/05/24 02:54:35;;;;;;;14.13;4.30;;;10.30;72.70;;;;;;4935418;29;20276;-82
2023/05/24 02:57:01;;;;;;;13.23;3.93;;;10.30;70.10;;;;;;4934822;29;20270;-82
2023/05/24 02:59:27;;;;;;;11.80;3.87;;;10.30;71.70;;;;;;4936899;29;20250;-82
2023/05/24 03:01:54;;;;;;;15.40;4.37;;;10.30;72.40;;;;;;4935445;29;20201;-83
2023/05/24 03:04:19;;;;;;;12.33;3.80;;;10.20;73.80;;;;;;4936296;29;20170;-82
2023/05/24 03:06:46;;;;;;;13.93;4.20;;;10.20;74.90;;;;;;4935537;29;20552;-82
2023/05/24 03:09:11;;;;;;;12.80;4.20;;;10.20;74.80;;;;;;4935378;29;20716;-81
2023/05/24 03:11:37;;;;;;;12.70;3.90;;;10.30;72.40;;;;;;4936552;29;20240;-81
2023/05/24 03:14:05;;;;;;;13.67;3.77;;;10.30;73.80;;;;;;4936867;29;20289;-82
2023/05/24 03:16:30;;;;;;;14.20;4.10;;;10.50;71.40;;;;;;4936201;29;20171;-81
2023/05/24 03:18:58;;;;;;;11.23;4.27;;;10.30;72.00;;;;;;4937065;29;20582;-82
2023/05/24 03:21:24;;;;;;;11.47;3.80;;;10.30;73.20;;;;;;4935470;29;20168;-82
2023/05/24 03:23:50;;;;;;;16.10;4.43;;;10.30;71.00;;;;;;4936222;29;20172;-81
2023/05/24 03:26:17;;;;;;;14.40;3.90;;;10.30;69.90;;;;;;4935209;29;20693;-82
2023/05/24 03:28:44;;;;;;;13.00;3.93;;;10.30;68.70;;;;;;4935100;29;20212;-81
2023/05/24 03:31:11;;;;;;;15.07;3.80;;;10.10;72.10;;;;;;4936184;29;20661;-81
2023/05/24 03:33:37;;;;;;;14.07;4.13;;;10.10;75.70;;;;;;4935249;29;20173;-82
2023/05/24 03:36:03;;;;;;;12.67;3.87;;;10.20;77.50;;;;;;4935102;29;20184;-81
2023/05/24 03:38:29;;;;;;;11.83;4.40;;;9.90;79.20;;;;;;4936554;29;20184;-82
2023/05/24 03:40:54;;;;;;;14.17;4.00;;;10.10;82.10;;;;;;4936189;29;20272;-82
2023/05/24 03:43:20;;;;;;;14.90;4.23;;;10.10;80.30;;;;;;4935191;29;20264;-83
2023/05/24 03:45:46;;;;;;;19.43;4.83;;;10.10;79.40;;;;;;4935899;29;20712;-81
2023/05/24 03:48:12;;;;;;;8.57;3.83;;;10.10;80.10;;;;;;4935240;29;20181;-82
2023/05/24 03:50:38;;;;;;;16.43;5.00;;;10.20;80.30;;;;;;4935186;29;20533;-81
2023/05/24 03:53:04;;;;;;;13.03;4.67;;;10.40;76.50;;;;;;4934764;29;20209;-83
2023/05/24 03:55:30;;;;;;;9.80;4.50;;;10.40;71.30;;;;;;4936026;29;20180;-83
2023/05/24 03:57:55;;;;;;;14.03;4.23;;;10.60;68.10;;;;;;4934796;29;20187;-81
2023/05/24 04:00:22;;;;;;;19.97;4.40;;;10.60;61.40;;;;;;4934676;29;20248;-81
2023/05/24 04:02:47;;;;;;;16.13;4.43;;;10.50;63.50;;;;;;4934933;29;20187;-82
2023/05/24 04:05:14;;;;;;;12.90;4.43;;;10.40;67.00;;;;;;4934020;29;20240;-82
2023/05/24 04:07:40;;;;;;;14.43;5.27;;;10.60;66.10;;;;;;4933310;29;20299;-81
2023/05/24 04:10:07;;;;;;;13.90;4.33;;;10.50;64.50;;;;;;4936016;29;20177;-81
2023/05/24 04:12:33;;;;;;;16.07;4.67;;;10.50;61.30;;;;;;4935760;29;20240;-82
2023/05/24 04:14:59;;;;;;;10.97;3.97;;;10.60;61.70;;;;;;4934326;29;20177;-81
2023/05/24 04:17:26;;;;;;;11.93;4.80;;;10.50;63.70;;;;;;4934434;29;20649;-81
2023/05/24 04:19:52;;;;;;;16.93;5.03;;;10.50;65.30;;;;;;4935838;29;20180;-80
2023/05/24 04:22:18;;;;;;;15.40;4.83;;;10.70;63.50;;;;;;4934503;29;20173;-80
2023/05/24 04:24:44;;;;;;;12.53;4.83;;;10.90;58.10;;;;;;4951526;28;20200;-81
2023/05/24 04:27:16;;;;;;;14.03;4.97;;;10.80;55.40;;;;;;4953751;29;20263;-82
2023/05/24 04:30:00;;;;;;;14.93;4.90;;;10.80;56.80;;;;;;4938916;29;20182;-82
2023/05/24 04:32:31;;;;;;;17.03;4.97;;;11.10;50.90;;;;;;4935535;29;20213;-81
2023/05/24 04:35:01;;;;;;;15.53;4.93;;;11.20;41.90;;;;;;4934998;29;20253;-81
2023/05/24 04:37:28;;;;;;;15.23;4.83;;;11.40;37.40;;;;;;4935797;29;20545;-81
2023/05/24 04:39:54;;;;;;;13.33;4.73;;;11.20;36.80;;;;;;4934724;29;20705;-81
2023/05/24 04:42:20;;;;;;;15.93;5.30;;;11.30;34.40;;;;;;4934173;29;20326;-81
2023/05/24 04:44:46;;;;;;;11.67;4.63;;;11.50;32.40;;;;;;4940834;28;20192;-82
2023/05/24 04:47:13;;;;;;;17.77;5.33;;;11.40;29.40;;;;;;4959086;28;20190;-81
2023/05/24 04:49:38;;;;;;;13.70;5.07;;;11.10;38.30;;;;;;4950251;28;20185;-81
2023/05/24 04:52:05;;;;;;;15.17;5.03;;;11.10;46.20;;;;;;4940462;29;20241;-82
2023/05/24 04:54:36;;;;;;;16.20;5.37;;;11.20;41.80;;;;;;4935647;29;20202;-82
2023/05/24 04:57:02;;;;;;;17.43;5.63;;;11.40;33.90;;;;;;4934594;29;20179;-82
2023/05/24 04:59:28;;;;;;;13.70;5.37;;;11.40;30.80;;;;;;4935779;29;20194;-81
2023/05/24 05:01:53;;;;;;;16.60;5.93;;;11.60;32.00;;;;;;4935196;29;20212;-80
2023/05/24 05:04:19;;;;;;;17.00;5.47;;;11.50;30.90;;;;;;4935884;29;20173;-82
2023/05/24 05:06:47;;;;;;;14.57;5.77;;;11.40;34.90;;;;;;4935051;29;20189;-82
2023/05/24 05:09:13;;;;;;;19.80;6.50;;;11.40;35.90;;;;;;4934829;29;20180;-81
2023/05/24 05:11:39;;;;;;;12.50;5.83;;;11.50;40.20;;;;;;4937714;29;20212;-81
2023/05/24 05:14:08;;;;;;;14.40;5.13;;;11.60;38.40;;;;;;4937593;29;20184;-81
2023/05/24 05:16:35;;;;;;;17.77;6.17;;;11.60;34.70;;;;;;4939067;29;20188;-81
2023/05/24 05:19:03;;;;;;;14.43;5.63;;;11.90;31.00;;;;;;4937565;29;20180;-81
2023/05/24 05:21:31;;;;;;;14.60;6.13;;;12.10;24.00;;;;;;4937446;29;20182;-81
2023/05/24 05:23:58;;;;;;;18.77;5.83;;;12.00;20.90;;;;;;4937418;29;20549;-82
2023/05/24 05:26:26;;;;;;;16.93;5.80;;;12.20;21.00;;;;;;4937469;29;20177;-82
2023/05/24 05:28:53;;;;;;;16.40;6.63;;;12.40;13.80;;;;;;4938650;29;20724;-81
2023/05/24 05:31:19;;;;;;;19.57;6.23;;;12.50;4.30;;;;;;4937116;29;20497;-82
2023/05/24 05:33:45;;;;;;;18.07;6.00;;;12.60;2.00;;;;;;4938488;29;20543;-81
2023/05/24 05:36:11;;;;;;;15.40;5.63;;;12.80;1.00;;;;;;4938239;29;20348;-82
2023/05/24 05:38:36;;;;;;;19.83;6.73;;;12.90;1.00;;;;;;4938341;29;20677;-81
2023/05/24 05:41:02;;;;;;;16.00;6.30;;;13.00;1.00;;;;;;4938363;29;20174;-81
2023/05/24 05:43:28;;;;;;;16.77;5.87;;;13.20;1.00;;;;;;4936989;29;20592;-81
2023/05/24 05:45:55;;;;;;;20.13;5.10;;;12.80;1.00;;;;;;4936905;29;20182;-81
2023/05/24 05:48:21;;;;;;;18.07;6.07;;;12.60;1.00;;;;;;4936723;29;20191;-82
2023/05/24 05:50:46;;;;;;;19.60;5.97;;;12.50;1.00;;;;;;4938440;29;20171;-80
2023/05/24 05:53:14;;;;;;;13.53;5.90;;;12.30;1.00;;;;;;4938556;29;20686;-82
2023/05/24 05:55:39;;;;;;;17.20;6.73;;;12.20;1.80;;;;;;4937265;29;20173;-82
2023/05/24 05:58:05;;;;;;;18.90;6.67;;;12.30;3.80;;;;;;4937273;29;20298;-81
2023/05/24 06:00:31;;;;;;;18.57;6.77;;;12.30;1.00;;;;;;4937390;29;20177;-82
2023/05/24 06:02:56;;;;;;;18.37;6.37;;;12.50;1.00;;;;;;4937374;29;20533;-83
2023/05/24 06:05:22;;;;;;;19.23;6.70;;;12.50;1.00;;;;;;4936974;29;20182;-82
2023/05/24 06:07:47;;;;;;;21.70;7.50;;;12.50;1.00;;;;;;4936810;29;20198;-82
2023/05/24 06:10:13;;;;;;;19.87;6.73;;;12.40;1.00;;;;;;4936514;29;20551;-83
2023/05/24 06:12:39;;;;;;;18.77;6.40;;;12.30;1.00;;;;;;4935849;29;20358;-82
2023/05/24 06:15:07;;;;;;;19.13;6.03;;;12.40;1.00;;;;;;4938150;29;20178;-83
2023/05/24 06:17:33;;;;;;;21.63;6.30;;;12.40;1.00;;;;;;4936714;29;20646;-81
2023/05/24 06:19:59;;;;;;;19.33;6.40;;;12.50;1.00;;;;;;4938097;29;20174;-81
2023/05/24 06:22:28;;;;;;;15.73;5.70;;;12.60;1.00;;;;;;4935723;29;20205;-82
2023/05/24 06:24:54;;;;;;;15.97;5.83;;;12.60;1.00;;;;;;4936372;29;20177;-82
2023/05/24 06:27:20;;;;;;;16.10;6.13;;;12.60;1.00;;;;;;4936916;29;20490;-83
2023/05/24 06:29:45;;;;;;;19.03;6.57;;;12.60;1.00;;;;;;4937678;29;20180;-81
2023/05/24 06:32:11;;;;;;;14.50;6.00;;;12.70;1.00;;;;;;4939286;29;20251;-80
2023/05/24 06:34:37;;;;;;;15.80;6.33;;;12.80;1.00;;;;;;4938491;29;20178;-81
2023/05/24 06:37:03;;;;;;;19.87;6.17;;;13.00;1.00;;;;;;4935864;29;20185;-83
2023/05/24 06:39:28;;;;;;;18.23;6.77;;;12.80;1.00;;;;;;4935824;29;20174;-82
2023/05/24 06:41:54;;;;;;;19.53;5.50;;;12.80;1.00;;;;;;4936762;29;20188;-83
2023/05/24 06:44:22;;;;;;;18.10;6.10;;;12.80;1.00;;;;;;4938044;29;20236;-82
2023/05/24 06:46:48;;;;;;;19.50;5.60;;;13.00;1.00;;;;;;4943080;29;20203;-83
2023/05/24 06:49:13;;;;;;;15.87;5.33;;;12.90;1.00;;;;;;4956712;29;20174;-82
2023/05/24 06:51:41;;;;;;;11.20;4.20;;;13.00;1.00;;;;;;4950097;29;20217;-82
2023/05/24 06:54:07;;;;;;;14.40;5.00;;;13.10;1.00;;;;;;4946933;29;20188;-81
2023/05/24 06:56:36;;;;;;;13.70;4.60;;;13.10;1.00;;;;;;4942058;29;20186;-83
2023/05/24 06:59:01;;;;;;;12.23;3.50;;;13.10;1.00;;;;;;4929284;29;20190;-82
2023/05/24 07:01:29;;;;;;;11.37;4.33;;;12.90;1.00;;;;;;4966911;28;20213;-83
2023/05/24 07:03:56;;;;;;;13.90;4.63;;;13.00;1.00;;;;;;4935863;29;20179;-81
2023/05/24 07:06:22;;;;;;;15.20;4.57;;;13.20;1.00;;;;;;4935173;29;20198;-82
2023/05/24 07:08:48;;;;;;;15.13;4.90;;;13.10;1.00;;;;;;4935028;29;20238;-83
2023/05/24 07:11:14;;;;;;;15.13;4.33;;;13.30;1.00;;;;;;4937434;29;20175;-82
2023/05/24 07:13:40;;;;;;;12.43;4.87;;;13.50;1.00;;;;;;4935610;29;20192;-81
2023/05/24 07:16:06;;;;;;;15.07;6.47;;;13.30;1.00;;;;;;4936295;29;20306;-81
2023/05/24 07:18:32;;;;;;;18.30;5.43;;;13.20;1.00;;;;;;4935143;29;20664;-82
2023/05/24 07:20:58;;;;;;;14.87;5.13;;;13.10;1.00;;;;;;4935647;29;20660;-81
2023/05/24 07:23:24;;;;;;;11.83;5.10;;;13.10;1.00;;;;;;4934748;29;20184;-83
2023/05/24 07:25:50;;;;;;;17.47;6.00;;;13.10;1.00;;;;;;4941254;29;20181;-84
2023/05/24 07:28:18;;;;;;;12.07;5.27;;;13.20;1.00;;;;;;4960127;28;20163;-82
2023/05/24 07:30:45;;;;;;;16.70;5.90;;;13.30;1.00;;;;;;4943891;29;20256;-82
2023/05/24 07:33:11;;;;;;;15.60;6.13;;;13.30;1.00;;;;;;4970674;28;20733;-84
2023/05/24 07:35:40;;;;;;;15.27;5.63;;;13.20;1.00;;;;;;4917769;29;20198;-86
2023/05/24 07:38:08;;;;;;;13.87;5.40;;;13.30;1.00;;;;;;4918455;29;20185;-84
2023/05/24 07:40:34;;;;;;;14.40;5.73;;;13.30;1.00;;;;;;4936008;29;20323;-83
2023/05/24 07:42:59;;;;;;;15.33;5.90;;;13.40;1.00;;;;;;4936391;29;20177;-85
2023/05/24 07:45:25;;;;;;;12.77;5.97;;;13.30;1.00;;;;;;4943846;28;20169;-86
2023/05/24 07:47:51;;;;;;;14.47;6.27;;;13.30;1.00;;;;;;4960124;28;20193;-83
2023/05/24 07:50:17;;;;;;;15.77;6.60;;;13.30;1.00;;;;;;4949647;29;20184;-84
2023/05/24 07:52:44;;;;;;;18.23;6.70;;;13.30;1.00;;;;;;4952008;29;20203;-82
2023/05/24 07:55:10;;;;;;;17.13;6.67;;;13.30;1.00;;;;;;4956419;29;20181;-85
2023/05/24 07:57:48;;;;;;;16.30;6.47;;;13.50;1.00;;;;;;4954780;29;20646;-81
2023/05/24 08:00:15;;;;;;;21.60;6.90;;;13.50;1.00;;;;;;4988360;28;20178;-80
2023/05/24 08:02:56;;;;;;;14.17;5.63;;;13.60;1.00;;;;;;4950853;28;20184;-82
2023/05/24 08:05:24;;;;;;;14.80;5.37;;;13.50;1.00;;;;;;4955746;28;20258;-81
2023/05/24 08:07:51;;;;;;;11.23;4.33;;;13.60;1.00;;;;;;4959933;28;20261;-83
2023/05/24 08:10:17;;;;;;;13.67;4.07;;;13.70;1.00;;;;;;4958088;28;20198;-82
2023/05/24 08:12:43;;;;;;;15.37;4.63;;;13.60;1.00;;;;;;4937781;29;20218;-83
2023/05/24 08:15:09;;;;;;;12.53;4.60;;;13.80;1.00;;;;;;4953223;28;20649;-78
2023/05/24 08:17:35;;;;;;;11.73;4.17;;;13.80;1.00;;;;;;4949476;29;20630;-81
2023/05/24 08:20:05;;;;;;;13.30;5.20;;;14.50;1.00;;;;;;4947714;29;20208;-83
2023/05/24 08:22:34;;;;;;;13.80;4.93;;;14.60;1.00;;;;;;4973977;28;20231;-83
2023/05/24 08:25:00;;;;;;;12.73;4.73;;;14.60;1.00;;;;;;4969259;28;20220;-88
2023/05/24 08:27:29;;;;;;;10.07;4.60;;;14.50;1.00;;;;;;4938919;29;20581;-85
2023/05/24 08:29:55;;;;;;;16.57;5.40;;;14.40;1.00;;;;;;4969756;28;20192;-82
2023/05/24 08:32:20;;;;;;;13.07;5.43;;;14.00;1.00;;;;;;4937540;29;20208;-90
2023/05/24 08:34:46;;;;;;;20.80;6.40;;;14.10;1.00;;;;;;4931863;29;20654;-87
2023/05/24 08:37:14;;;;;;;14.53;5.80;;;14.30;1.00;;;;;;4918417;29;20186;-83
2023/05/24 08:39:44;;;;;;;13.73;6.40;;;14.40;1.00;;;;;;4915778;29;20169;-80
2023/05/24 08:42:10;;;;;;;18.40;6.20;;;14.60;1.00;;;;;;4918014;29;20185;-80
2023/05/24 08:45:02;;;;;;;19.03;6.33;;;14.70;1.00;;;;;;4925340;29;20171;-80
2023/05/24 08:47:29;;;;;;;20.47;6.93;;;15.00;1.00;;;;;;4936998;29;20633;-81
2023/05/24 08:49:55;;;;;;;13.43;6.47;;;15.10;1.00;;;;;;4939832;29;20176;-79
2023/05/24 08:52:22;;;;;;;21.77;7.30;;;15.00;1.00;;;;;;4938068;29;20306;-80
2023/05/24 08:54:48;;;;;;;18.53;8.03;;;14.80;1.00;;;;;;4939199;29;20243;-79
2023/05/24 08:57:15;;;;;;;17.93;7.43;;;14.90;1.00;;;;;;4970274;28;20204;-81
2023/05/24 08:59:41;;;;;;;16.07;7.50;;;14.90;1.00;;;;;;4940848;29;20180;-83
2023/05/24 09:02:14;;;;;;;17.93;7.13;;;14.70;1.00;;;;;;4937604;29;20280;-85
2023/05/24 09:04:43;;;;;;;15.40;7.87;;;14.70;1.00;;;;;;4931413;29;20268;-83
2023/05/24 09:07:11;;;;;;;20.97;7.63;;;14.80;1.00;;;;;;4945715;29;20235;-83
2023/05/24 09:09:43;;;;;;;13.13;6.80;;;14.90;1.00;;;;;;4957688;29;20731;-82
2023/05/24 09:12:13;;;;;;;22.67;7.83;;;14.80;1.00;;;;;;4971129;28;20243;-82
2023/05/24 09:14:45;;;;;;;19.37;7.80;;;14.70;1.00;;;;;;4940448;29;20176;-82
2023/05/24 09:17:14;;;;;;;16.57;8.03;;;14.80;1.00;;;;;;4975547;28;20178;-82
2023/05/24 09:19:44;;;;;;;16.10;7.97;;;15.00;1.00;;;;;;4946497;29;20179;-82
2023/05/24 09:22:12;;;;;;;19.80;8.20;;;15.10;1.00;;;;;;4945683;29;20538;-82
2023/05/24 09:24:46;;;;;;;15.70;7.83;;;15.10;1.00;;;;;;4947036;29;20174;-83
2023/05/24 09:27:16;;;;;;;14.57;8.87;;;15.00;1.00;;;;;;4947229;29;20197;-81
2023/05/24 09:29:45;;;;;;;15.83;8.30;;;14.90;1.00;;;;;;4944267;29;20204;-82
2023/05/24 09:32:13;;;;;;;14.93;7.70;;;15.00;1.00;;;;;;4945064;29;20256;-81
2023/05/24 09:34:40;;;;;;;16.70;7.97;;;15.10;1.00;;;;;;4944284;29;20180;-82
2023/05/24 09:37:12;;;;;;;15.63;8.13;;;15.50;1.00;;;;;;4940398;29;20181;-84
2023/05/24 09:39:43;;;;;;;14.53;7.70;;;15.50;1.00;;;;;;4972648;28;20244;-85
2023/05/24 09:42:14;;;;;;;19.77;8.10;;;15.60;1.00;;;;;;4939564;29;20750;-83
2023/05/24 09:44:41;;;;;;;15.33;8.90;;;15.60;1.00;;;;;;4940417;29;20196;-83
2023/05/24 09:47:08;;;;;;;12.03;8.67;;;15.50;1.00;;;;;;4941302;29;20189;-81
2023/05/24 09:49:37;;;;;;;16.03;8.80;;;15.30;1.00;;;;;;4940022;29;20243;-84
2023/05/24 09:52:04;;;;;;;16.30;8.87;;;15.30;1.00;;;;;;4940311;29;20300;-85
2023/05/24 09:54:31;;;;;;;16.27;8.27;;;15.30;1.00;;;;;;4944276;29;20174;-83
2023/05/24 09:57:00;;;;;;;15.03;8.80;;;15.50;1.00;;;;;;4942567;29;20556;-82
2023/05/24 09:59:31;;;;;;;11.90;7.43;;;15.40;1.00;;;;;;4955568;29;20192;-82
2023/05/24 10:02:09;;;;;;;15.97;8.27;;;15.40;99.90;;;;;;4942140;29;20200;-84
2023/05/24 10:04:35;;;;;;;14.03;8.37;;;15.30;1.00;;;;;;4938557;29;20175;-84
2023/05/24 10:07:01;;;;;;;16.90;8.93;;;15.50;1.00;;;;;;4938760;29;20193;-84
2023/05/24 10:09:32;;;;;;;18.13;8.83;;;15.70;1.00;;;;;;4937528;29;20192;-82
2023/05/24 10:12:04;;;;;;;15.70;7.97;;;15.80;1.00;;;;;;4969350;28;20271;-85
2023/05/24 10:14:36;;;;;;;13.10;7.83;;;15.80;1.00;;;;;;4936830;29;20173;-84
2023/05/24 10:17:04;;;;;;;13.30;5.70;;;16.10;99.90;;;;;;4937490;29;20677;-85
2023/05/24 10:19:33;;;;;;;11.67;6.33;;;16.30;99.90;;;;;;4938549;29;20180;-83
2023/05/24 10:22:01;;;;;;;13.67;5.73;;;16.10;99.90;;;;;;4985823;28;20171;-82
2023/05/24 10:24:35;;;;;;;11.33;6.23;;;15.70;99.90;;;;;;4959039;29;20177;-83
2023/05/24 10:27:09;;;;;;;12.37;5.80;;;15.50;99.90;;;;;;4952581;29;20219;-84
2023/05/24 10:30:14;;;;;;;14.67;6.57;;;15.80;1.00;;;;;;4942591;29;20184;-85
2023/05/24 10:32:42;;;;;;;11.37;5.50;;;16.10;99.90;;;;;;4972466;28;20216;-82
2023/05/24 10:35:11;;;;;;;10.20;5.10;;;16.10;99.90;;;;;;4943949;29;20224;-84
2023/05/24 10:37:37;;;;;;;10.93;5.00;;;16.20;99.90;;;;;;4949189;29;20181;-84
2023/05/24 10:40:05;;;;;;;14.50;4.73;;;16.40;99.90;;;;;;4952958;29;20177;-83
2023/05/24 10:42:32;;;;;;;12.67;5.23;;;16.50;99.90;;;;;;4985861;28;20188;-83
2023/05/24 10:44:57;;;;;;;13.63;5.23;;;16.50;99.90;;;;;;4959768;28;20174;-85
2023/05/24 10:47:30;;;;;;;13.93;4.60;;;16.50;99.90;;;;;;4950321;29;20196;-85
2023/05/24 10:49:58;;;;;;;9.90;4.80;;;16.50;99.90;;;;;;4939166;29;20533;-84
2023/05/24 10:52:34;;;;;;;12.33;4.97;;;16.60;99.90;;;;;;4944665;29;20256;-82
2023/05/24 10:55:09;;;;;;;12.73;5.30;;;16.70;99.90;;;;;;4949895;29;20177;-81
2023/05/24 10:57:35;;;;;;;11.00;4.90;;;16.60;99.90;;;;;;4988036;28;20180;-81
2023/05/24 11:00:19;;;;;;;15.40;5.37;;;16.70;99.90;;;;;;4948735;29;20238;-84
2023/05/24 11:03:08;;;;;;;11.43;4.87;;;16.80;99.90;;;;;;4937287;29;20196;-85
2023/05/24 11:05:35;;;;;;;11.67;4.63;;;16.70;99.90;;;;;;4936934;29;20208;-85
2023/05/24 11:08:02;;;;;;;13.47;4.97;;;16.50;99.90;;;;;;4937379;29;20301;-83
2023/05/24 11:10:34;;;;;;;12.57;4.37;;;16.90;99.90;;;;;;4937377;29;20221;-83
2023/05/24 11:13:01;;;;;;;12.20;4.50;;;16.90;99.90;;;;;;4941152;29;20276;-84
2023/05/24 11:15:28;;;;;;;10.07;4.13;;;17.00;99.90;;;;;;4945171;29;20184;-82
2023/05/24 11:18:13;;;;;;;7.93;4.10;;;17.00;99.90;;;;;;4969544;28;20176;-83
2023/05/24 11:20:46;;;;;;;11.37;3.93;;;17.10;1.00;;;;;;4937089;29;20210;-85
2023/05/24 11:23:14;;;;;;;9.57;3.83;;;17.10;1.00;;;;;;4944389;29;20177;-83
2023/05/24 11:25:40;;;;;;;10.67;4.40;;;16.90;99.90;;;;;;4955911;29;20269;-84
2023/05/24 11:28:10;;;;;;;7.23;3.70;;;17.00;99.90;;;;;;4949555;29;20180;-83
2023/05/24 11:30:39;;;;;;;10.27;3.93;;;17.10;99.90;;;;;;4938988;29;20178;-83
2023/05/24 11:33:22;;;;;;;11.07;4.20;;;17.10;1.00;;;;;;4936210;29;20300;-81
2023/05/24 11:35:54;;;;;;;11.77;4.40;;;17.30;1.00;;;;;;4937080;29;20708;-81
2023/05/24 11:38:21;;;;;;;10.63;4.03;;;17.50;99.90;;;;;;4937158;29;20203;-82
2023/05/24 11:40:49;;;;;;;14.57;3.60;;;17.40;99.90;;;;;;4936017;29;20179;-83
2023/05/24 11:43:17;;;;;;;9.47;3.07;;;17.40;1.00;;;;;;4935884;29;20188;-83
2023/05/24 11:45:50;;;;;;;8.23;3.40;;;17.30;1.00;;;;;;4936546;29;20670;-83
2023/05/24 11:48:18;;;;;;;8.53;3.97;;;17.50;99.90;;;;;;4936411;29;20196;-82
2023/05/24 11:50:47;;;;;;;8.77;3.33;;;17.50;1.00;;;;;;4936112;29;20188;-82
2023/05/24 11:53:16;;;;;;;8.57;3.57;;;17.50;1.00;;;;;;4936574;29;20207;-83
2023/05/24 11:55:42;;;;;;;8.70;3.43;;;17.60;1.00;;;;;;4936357;29;20178;-81
2023/05/24 11:58:19;;;;;;;8.63;3.23;;;17.70;1.00;;;;;;4935490;29;20323;-82
2023/05/24 12:00:50;;;;;;;9.60;3.90;;;17.70;1.00;;;;;;4933766;29;20168;-83
2023/05/24 12:03:16;;;;;;;10.90;3.50;;;17.60;1.00;;;;;;4935831;29;20641;-84
2023/05/24 12:05:42;;;;;;;8.67;3.80;;;17.60;1.00;;;;;;4935949;29;20172;-84
2023/05/24 12:08:11;;;;;;;8.50;3.80;;;17.50;1.00;;;;;;4935530;29;20199;-85
2023/05/24 12:10:39;;;;;;;12.13;3.73;;;17.30;1.00;;;;;;4938536;29;20165;-84
2023/05/24 12:13:06;;;;;;;9.63;3.43;;;17.30;9.40;;;;;;4935674;29;20209;-83
2023/05/24 12:15:32;;;;;;;8.20;3.60;;;17.20;99.90;;;;;;4935492;29;20307;-82
2023/05/24 12:17:58;;;;;;;12.73;4.77;;;17.20;1.00;;;;;;4935457;29;20192;-83
2023/05/24 12:20:27;;;;;;;9.33;4.07;;;17.30;99.90;;;;;;4939528;29;20190;-83
2023/05/24 12:22:54;;;;;;;8.67;3.77;;;17.20;99.90;;;;;;4939318;29;20592;-84
2023/05/24 12:25:22;;;;;;;10.20;4.40;;;17.40;99.90;;;;;;4939707;29;20644;-85
2023/05/24 12:27:55;;;;;;;9.50;4.10;;;17.40;1.00;;;;;;4939517;29;20262;-85
2023/05/24 12:30:23;;;;;;;10.07;4.37;;;17.70;99.90;;;;;;4923118;29;20263;-84
2023/05/24 12:32:49;;;;;;;11.53;3.50;;;18.00;99.90;;;;;;4940126;29;20238;-84
2023/05/24 12:35:17;;;;;;;10.33;3.90;;;17.80;82.50;;;;;;4939663;29;20179;-83
2023/05/24 12:37:44;;;;;;;10.27;3.90;;;17.70;99.90;;;;;;4941488;29;20733;-85
2023/05/24 12:40:22;;;;;;;8.07;4.47;;;17.60;99.90;;;;;;4939769;29;20207;-83
2023/05/24 12:42:54;;;;;;;9.17;4.97;;;17.50;99.90;;;;;;4938532;29;20174;-82
2023/05/24 12:45:23;;;;;;;8.60;5.10;;;17.30;99.90;;;;;;4939770;29;20283;-83
2023/05/24 12:47:52;;;;;;;13.13;4.93;;;17.30;1.00;;;;;;4939660;29;20276;-86
2023/05/24 12:50:20;;;;;;;12.43;4.40;;;17.40;1.00;;;;;;4940031;29;20174;-84
2023/05/24 12:52:46;;;;;;;11.20;4.37;;;17.50;99.90;;;;;;4942544;29;20220;-83